Главная страница
METAR-TAF:

METAR-TAF

Аэропорты :

Meriden-Markham Municipal Airport

Meriden, Коннектикут, США

широта: 41-30-35N, долгота: 072-49-40W, высота над уровнем моря: 31 м

Текущие метеонаблюдения

Эта сводка был подготовлена 41 минут назад, в 13:53 UTC
Ветер 8 Узел от юго-западный
Температура 2°C
Влажность 60%
Давление 1017 hPa
Видимость: 14.5 км
небольшая облачность на высоте 12000 фута
небольшой снег

METAR: KMMK 211353Z AUTO 23008KT 9SM -SN FEW120 02/M05 A3004 RMK AO2 SNB04 SLP173 P0000 T00221050

Время: 09:34 (14:34 UTC)


TAF: отсутствует

Метеонаблюдения и прогнозы для более 4000 аэропортов (сводки METAR и TAF).

Имеющиеся станции представлены на карте желтыми и красными точками.

Чтобы увидеть название станции, наведите на нее мышь.

Затем щелкните, чтобы увидеть метеонаблюдения и метеопрогнозы.

Управление картой: чтобы увеличить масштаб, щелкните зеленые кнопки с черным крестиком; чтобы уменьшить масштаб, щелкните зеленую кнопку с тире; для просмотра соседних карт щелкайте зеленые стрелки.


METAR-TAF: